createdAt,value
2019-01-13T00:00:16.524Z,8.22
2019-01-13T00:01:14.918Z,8.25
2019-01-13T00:02:14.902Z,8.23
2019-01-13T00:03:14.886Z,8.22
2019-01-13T00:04:14.883Z,8.26
2019-01-13T00:05:14.866Z,8.16
2019-01-13T00:06:14.852Z,8.1
2019-01-13T00:07:14.837Z,8.1
2019-01-13T00:08:14.826Z,8.16
2019-01-13T00:09:14.816Z,8.18
2019-01-13T00:10:14.801Z,8.12
2019-01-13T00:11:14.790Z,8.19
2019-01-13T00:12:14.814Z,8.19
2019-01-13T00:13:14.766Z,8.12
2019-01-13T00:14:14.751Z,8.15
2019-01-13T00:15:14.744Z,8.1
2019-01-13T00:16:14.730Z,8.11
2019-01-13T00:17:14.719Z,8.11
2019-01-13T00:18:14.704Z,8.15
2019-01-13T00:19:14.696Z,8.2
2019-01-13T00:20:14.684Z,8.18
2019-01-13T00:21:14.675Z,8.19
2019-01-13T00:22:14.655Z,8.11
2019-01-13T00:23:14.662Z,8.19
2019-01-13T00:24:14.638Z,8.22
2019-01-13T00:25:14.624Z,8.22
2019-01-13T00:26:14.616Z,8.22
2019-01-13T00:27:14.599Z,8.29
2019-01-13T00:28:14.595Z,8.29
2019-01-13T00:29:14.571Z,8.33
2019-01-13T00:30:21.553Z,8.33
2019-01-13T00:31:14.554Z,8.3
2019-01-13T00:32:14.537Z,8.25
2019-01-13T00:33:14.285Z,8.26
2019-01-13T00:34:14.518Z,8.28
2019-01-13T00:35:14.505Z,8.3
2019-01-13T00:36:14.498Z,8.26
2019-01-13T00:37:14.479Z,8.29
2019-01-13T00:38:14.467Z,8.36
2019-01-13T00:39:14.455Z,8.33
2019-01-13T00:40:14.446Z,8.34
2019-01-13T00:41:14.432Z,8.22
2019-01-13T00:42:14.420Z,8.28
2019-01-13T00:43:14.406Z,8.26
2019-01-13T00:44:14.391Z,8.3
2019-01-13T00:45:14.384Z,8.33
2019-01-13T00:46:14.393Z,8.3
2019-01-13T00:47:14.361Z,8.29
2019-01-13T00:48:14.343Z,8.25
2019-01-13T00:49:14.336Z,8.33
2019-01-13T00:50:14.323Z,8.26
2019-01-13T00:51:14.325Z,8.28
2019-01-13T00:52:14.297Z,8.29
2019-01-13T00:53:14.289Z,8.23
2019-01-13T00:54:14.274Z,8.23
2019-01-13T00:55:14.260Z,8.23
2019-01-13T00:56:14.254Z,8.26
2019-01-13T00:57:14.239Z,8.08
2019-01-13T00:58:14.222Z,8.16
2019-01-13T00:59:14.221Z,8.08
2019-01-13T01:00:14.201Z,8.05
2019-01-13T01:01:14.189Z,8.11
2019-01-13T01:02:14.175Z,8.16
2019-01-13T01:03:14.164Z,8.05
2019-01-13T01:04:14.152Z,8.02
2019-01-13T01:05:14.141Z,7.97
2019-01-13T01:06:14.129Z,7.98
2019-01-13T01:07:14.122Z,7.98
2019-01-13T01:08:14.104Z,7.85
2019-01-13T01:09:14.090Z,7.87
2019-01-13T01:10:14.082Z,7.77
2019-01-13T01:11:14.067Z,7.82
2019-01-13T01:12:14.054Z,7.79
2019-01-13T01:13:14.041Z,7.87
2019-01-13T01:14:14.035Z,7.79
2019-01-13T01:15:14.017Z,7.77
2019-01-13T01:16:14.004Z,7.72
2019-01-13T01:17:13.990Z,7.68
2019-01-13T01:18:13.984Z,7.71
2019-01-13T01:19:13.971Z,7.77
2019-01-13T01:20:13.955Z,7.68
2019-01-13T01:21:13.946Z,7.71
2019-01-13T01:22:13.931Z,7.63
2019-01-13T01:23:13.918Z,7.63
2019-01-13T01:24:13.905Z,7.67
2019-01-13T01:25:13.894Z,7.6
2019-01-13T01:26:13.885Z,7.58
2019-01-13T01:27:13.875Z,7.58
2019-01-13T01:28:13.855Z,7.57
2019-01-13T01:29:13.851Z,7.58
2019-01-13T01:30:13.834Z,7.57
2019-01-13T01:31:13.820Z,7.55
2019-01-13T01:32:13.810Z,7.52
2019-01-13T01:33:13.795Z,7.52
2019-01-13T01:34:13.784Z,7.5
2019-01-13T01:35:13.771Z,7.58
2019-01-13T01:36:13.756Z,7.52
2019-01-13T01:37:13.748Z,7.57
2019-01-13T01:38:13.734Z,7.46
2019-01-13T01:39:13.718Z,7.53
2019-01-13T01:40:13.705Z,7.58
2019-01-13T01:41:13.694Z,7.53
2019-01-13T01:42:13.688Z,7.55
2019-01-13T01:43:13.671Z,7.46
2019-01-13T01:44:13.656Z,7.57
2019-01-13T01:45:13.641Z,7.53
2019-01-13T01:46:13.640Z,7.53
2019-01-13T01:47:13.619Z,7.55
2019-01-13T01:48:13.607Z,7.61
2019-01-13T01:49:13.597Z,7.57
2019-01-13T01:50:13.582Z,7.6
2019-01-13T01:51:13.568Z,7.45
2019-01-13T01:52:13.557Z,7.46
2019-01-13T01:53:13.542Z,7.58
2019-01-13T01:54:13.532Z,7.57
2019-01-13T01:55:13.517Z,7.63
2019-01-13T01:56:13.508Z,7.5
2019-01-13T01:57:13.491Z,7.55
2019-01-13T01:58:13.480Z,7.45
2019-01-13T01:59:13.230Z,7.48
2019-01-13T02:00:13.456Z,7.46
2019-01-13T02:01:13.445Z,7.49
2019-01-13T02:02:13.482Z,7.57
2019-01-13T02:03:13.439Z,7.45
2019-01-13T02:04:13.475Z,7.4
2019-01-13T02:05:13.440Z,7.46
2019-01-13T02:06:13.418Z,7.46
2019-01-13T02:07:13.382Z,7.43
2019-01-13T02:08:13.180Z,7.45
2019-01-13T02:09:13.342Z,7.45
2019-01-13T02:10:13.332Z,7.58
2019-01-13T02:11:13.317Z,7.53
2019-01-13T02:12:13.306Z,7.49
2019-01-13T02:13:13.295Z,7.48
2019-01-13T02:14:13.281Z,7.55
2019-01-13T02:15:13.268Z,7.53
2019-01-13T02:16:13.255Z,7.57
2019-01-13T02:17:13.246Z,7.58
2019-01-13T02:18:13.231Z,7.55
2019-01-13T02:19:13.218Z,7.55
2019-01-13T02:20:13.201Z,7.53
2019-01-13T02:21:13.193Z,7.57
2019-01-13T02:22:13.177Z,7.52
2019-01-13T02:23:13.163Z,7.55
2019-01-13T02:24:13.154Z,7.55
2019-01-13T02:25:13.141Z,7.57
2019-01-13T02:26:13.129Z,7.58
2019-01-13T02:27:13.119Z,7.58
2019-01-13T02:28:12.875Z,7.53
2019-01-13T02:29:13.088Z,7.61
2019-01-13T02:30:13.095Z,7.57
2019-01-13T02:31:13.074Z,7.55
2019-01-13T02:32:13.060Z,7.55
2019-01-13T02:33:13.048Z,7.63
2019-01-13T02:34:13.055Z,7.67
2019-01-13T02:35:13.020Z,7.63
2019-01-13T02:36:13.014Z,7.61
2019-01-13T02:37:12.991Z,7.61
2019-01-13T02:38:12.975Z,7.71
2019-01-13T02:39:12.999Z,7.64
2019-01-13T02:40:12.960Z,7.64
2019-01-13T02:41:12.940Z,7.71
2019-01-13T02:42:12.939Z,7.72
2019-01-13T02:43:12.922Z,7.8
2019-01-13T02:44:12.908Z,7.8
2019-01-13T02:45:12.891Z,7.8
2019-01-13T02:46:12.887Z,7.8
2019-01-13T02:47:12.864Z,7.9
2019-01-13T02:48:12.616Z,7.85
2019-01-13T02:49:12.843Z,7.86
2019-01-13T02:50:12.834Z,7.9
2019-01-13T02:51:12.828Z,7.86
2019-01-13T02:52:12.810Z,7.89
2019-01-13T02:53:12.792Z,7.82
2019-01-13T02:54:12.838Z,7.85
2019-01-13T02:55:12.762Z,7.87
2019-01-13T02:56:12.765Z,7.87
2019-01-13T02:57:12.746Z,7.86
2019-01-13T02:58:12.729Z,7.93
2019-01-13T02:59:12.721Z,7.95
2019-01-13T03:00:12.715Z,7.97
2019-01-13T03:01:12.691Z,7.93
2019-01-13T03:02:13.082Z,7.98
2019-01-13T03:03:12.689Z,8.04
2019-01-13T03:04:12.657Z,8.02
2019-01-13T03:05:12.645Z,8.05
2019-01-13T03:06:12.630Z,8.07
2019-01-13T03:07:12.622Z,8.07
2019-01-13T03:08:12.611Z,8.05
2019-01-13T03:09:12.600Z,8.01
2019-01-13T03:10:12.580Z,8.01
2019-01-13T03:11:12.578Z,8.05
2019-01-13T03:12:12.560Z,8.04
2019-01-13T03:13:12.550Z,7.98
2019-01-13T03:14:12.538Z,8.05
2019-01-13T03:15:19.251Z,8
2019-01-13T03:16:12.510Z,8.04
2019-01-13T03:17:12.497Z,8.01
2019-01-13T03:18:12.483Z,7.98
2019-01-13T03:19:12.490Z,8.02
2019-01-13T03:20:12.463Z,8.04
2019-01-13T03:21:12.457Z,8.01
2019-01-13T03:22:12.437Z,8.04
2019-01-13T03:23:12.425Z,8.04
2019-01-13T03:24:12.472Z,8.04
2019-01-13T03:25:14.401Z,8.02
2019-01-13T03:26:12.385Z,8.01
2019-01-13T03:27:12.377Z,8.01
2019-01-13T03:28:12.367Z,8
2019-01-13T03:29:12.368Z,7.87
2019-01-13T03:30:12.354Z,7.97
2019-01-13T03:31:17.018Z,7.87
2019-01-13T03:32:12.327Z,7.9
2019-01-13T03:33:12.312Z,7.82
2019-01-13T03:34:12.289Z,7.83
2019-01-13T03:35:12.274Z,7.82
2019-01-13T03:36:12.259Z,7.89
2019-01-13T03:37:12.278Z,7.89
2019-01-13T03:38:12.242Z,7.89
2019-01-13T03:39:12.228Z,7.87
2019-01-13T03:40:12.214Z,7.8
2019-01-13T03:41:12.203Z,7.85
2019-01-13T03:42:12.188Z,7.8
2019-01-13T03:43:12.178Z,7.8
2019-01-13T03:44:12.164Z,7.75
2019-01-13T03:45:12.151Z,7.75
2019-01-13T03:46:12.140Z,7.77
2019-01-13T03:47:12.135Z,7.74
2019-01-13T03:48:12.113Z,7.8
2019-01-13T03:49:12.110Z,7.79
2019-01-13T03:50:12.096Z,7.8
2019-01-13T03:51:12.088Z,7.72
2019-01-13T03:52:12.071Z,7.83
2019-01-13T03:53:12.062Z,7.75
2019-01-13T03:54:12.041Z,7.77
2019-01-13T03:55:12.033Z,7.74
2019-01-13T03:56:12.024Z,7.77
2019-01-13T03:57:12.000Z,7.75
2019-01-13T03:58:13.662Z,7.83
2019-01-13T03:59:12.030Z,7.79
2019-01-13T04:00:11.971Z,7.79
2019-01-13T04:01:18.480Z,7.75
2019-01-13T04:02:11.950Z,7.75
2019-01-13T04:03:11.936Z,7.79
2019-01-13T04:04:11.916Z,7.79
2019-01-13T04:05:11.912Z,7.83
2019-01-13T04:06:11.894Z,7.72
2019-01-13T04:07:11.895Z,7.79
2019-01-13T04:08:11.866Z,7.83
2019-01-13T04:09:11.880Z,7.83
2019-01-13T04:10:11.843Z,7.72
2019-01-13T04:11:11.841Z,7.74
2019-01-13T04:12:11.818Z,7.72
2019-01-13T04:13:11.808Z,7.72
2019-01-13T04:14:11.793Z,7.79
2019-01-13T04:15:11.783Z,7.79
2019-01-13T04:16:11.777Z,7.83
2019-01-13T04:17:11.757Z,7.79
2019-01-13T04:18:11.744Z,7.77
2019-01-13T04:19:11.730Z,7.82
2019-01-13T04:20:11.718Z,7.79
2019-01-13T04:21:11.711Z,7.83
2019-01-13T04:22:11.696Z,7.79
2019-01-13T04:23:11.684Z,7.82
2019-01-13T04:24:11.668Z,7.82
2019-01-13T04:25:11.656Z,7.8
2019-01-13T04:26:11.641Z,7.75
2019-01-13T04:27:11.629Z,7.79
2019-01-13T04:28:11.620Z,7.83
2019-01-13T04:29:11.608Z,7.79
2019-01-13T04:30:11.597Z,7.85
2019-01-13T04:31:11.591Z,7.74
2019-01-13T04:32:11.645Z,7.8
2019-01-13T04:33:11.565Z,7.8
2019-01-13T04:34:11.549Z,7.82
2019-01-13T04:35:11.542Z,7.83
2019-01-13T04:36:11.523Z,7.72
2019-01-13T04:37:11.507Z,7.82
2019-01-13T04:38:11.496Z,7.82
2019-01-13T04:39:11.479Z,7.79
2019-01-13T04:40:11.470Z,7.79
2019-01-13T04:41:11.464Z,7.79
2019-01-13T04:42:11.453Z,7.82
2019-01-13T04:43:11.434Z,7.79
2019-01-13T04:44:11.421Z,7.79
2019-01-13T04:45:11.404Z,7.74
2019-01-13T04:46:11.399Z,7.79
2019-01-13T04:47:11.394Z,7.74
2019-01-13T04:48:11.393Z,7.77
2019-01-13T04:49:11.356Z,7.83
2019-01-13T04:50:11.343Z,7.75
2019-01-13T04:51:11.336Z,7.82
2019-01-13T04:52:11.319Z,7.79
2019-01-13T04:53:11.309Z,7.86
2019-01-13T04:54:11.297Z,7.86
2019-01-13T04:55:11.291Z,7.92
2019-01-13T04:56:11.277Z,7.86
2019-01-13T04:57:11.259Z,7.87
2019-01-13T04:58:11.296Z,7.86
2019-01-13T04:59:11.240Z,7.79
2019-01-13T05:00:11.220Z,7.89
2019-01-13T05:01:11.216Z,7.86
2019-01-13T05:02:11.203Z,7.93
2019-01-13T05:03:11.213Z,7.87
2019-01-13T05:04:11.175Z,7.95
2019-01-13T05:05:11.169Z,7.93
2019-01-13T05:06:11.150Z,7.86
2019-01-13T05:07:11.136Z,7.89
2019-01-13T05:08:11.127Z,7.86
2019-01-13T05:09:11.110Z,7.85
2019-01-13T05:10:11.094Z,7.89
2019-01-13T05:11:11.108Z,7.82
2019-01-13T05:12:11.073Z,7.87
2019-01-13T05:13:11.066Z,7.92
2019-01-13T05:14:11.048Z,7.87
2019-01-13T05:15:11.051Z,7.85
2019-01-13T05:16:11.023Z,7.87
2019-01-13T05:17:11.011Z,7.8
2019-01-13T05:18:11.003Z,7.83
2019-01-13T05:19:10.986Z,7.83
2019-01-13T05:20:10.978Z,7.85
2019-01-13T05:21:10.971Z,7.89
2019-01-13T05:22:10.956Z,7.83
2019-01-13T05:23:10.942Z,7.87
2019-01-13T05:24:10.938Z,7.9
2019-01-13T05:25:10.912Z,7.97
2019-01-13T05:26:10.898Z,7.82
2019-01-13T05:27:10.888Z,7.87
2019-01-13T05:28:10.880Z,7.89
2019-01-13T05:29:10.864Z,7.98
2019-01-13T05:30:10.858Z,7.87
2019-01-13T05:31:10.841Z,7.9
2019-01-13T05:32:10.829Z,7.82
2019-01-13T05:33:10.819Z,7.85
2019-01-13T05:34:10.802Z,7.97
2019-01-13T05:35:10.790Z,7.92
2019-01-13T05:36:10.778Z,7.92
2019-01-13T05:37:10.782Z,7.89
2019-01-13T05:38:10.752Z,7.89
2019-01-13T05:39:10.746Z,7.87
2019-01-13T05:40:10.727Z,7.89
2019-01-13T05:41:10.726Z,7.89
2019-01-13T05:42:10.705Z,7.89
2019-01-13T05:43:10.690Z,7.83
2019-01-13T05:44:10.681Z,7.86
2019-01-13T05:45:10.667Z,7.89
2019-01-13T05:46:10.424Z,7.83
2019-01-13T05:47:10.643Z,7.87
2019-01-13T05:48:10.627Z,7.86
2019-01-13T05:49:10.616Z,7.79
2019-01-13T05:50:10.603Z,7.89
2019-01-13T05:51:10.596Z,7.83
2019-01-13T05:52:10.579Z,7.85
2019-01-13T05:53:10.566Z,7.85
2019-01-13T05:54:10.560Z,7.87
2019-01-13T05:55:10.545Z,7.83
2019-01-13T05:56:10.531Z,7.92
2019-01-13T05:57:10.522Z,7.93
2019-01-13T05:58:10.508Z,7.86
2019-01-13T05:59:10.250Z,7.89
2019-01-13T06:00:10.481Z,7.86
2019-01-13T06:01:10.482Z,7.93
2019-01-13T06:02:10.454Z,7.93
2019-01-13T06:03:10.443Z,7.86
2019-01-13T06:04:10.433Z,7.87
2019-01-13T06:05:10.419Z,7.83
2019-01-13T06:06:10.408Z,7.86
2019-01-13T06:07:10.398Z,7.89
2019-01-13T06:08:10.388Z,7.87
2019-01-13T06:09:10.370Z,7.86
2019-01-13T06:10:10.355Z,7.9
2019-01-13T06:11:10.344Z,7.86
2019-01-13T06:12:10.331Z,7.89
2019-01-13T06:13:10.320Z,7.89
2019-01-13T06:14:10.306Z,7.97
2019-01-13T06:15:10.301Z,7.86
2019-01-13T06:16:10.283Z,7.83
2019-01-13T06:17:10.279Z,7.93
2019-01-13T06:18:10.258Z,7.97
2019-01-13T06:19:10.250Z,7.98
2019-01-13T06:20:10.231Z,8
2019-01-13T06:21:10.222Z,7.87
2019-01-13T06:22:10.227Z,8
2019-01-13T06:23:10.198Z,7.83
2019-01-13T06:24:11.764Z,7.85
2019-01-13T06:25:10.190Z,7.9
2019-01-13T06:26:10.162Z,7.8
2019-01-13T06:27:10.145Z,7.79
2019-01-13T06:28:10.133Z,7.77
2019-01-13T06:29:10.122Z,7.82
2019-01-13T06:30:11.385Z,7.86
2019-01-13T06:31:10.098Z,7.86
2019-01-13T06:32:10.090Z,7.89
2019-01-13T06:33:10.074Z,7.79
2019-01-13T06:34:10.062Z,7.87
2019-01-13T06:35:10.049Z,7.89
2019-01-13T06:36:10.049Z,7.89
2019-01-13T06:37:10.027Z,7.9
2019-01-13T06:38:11.075Z,7.87
2019-01-13T06:39:10.001Z,7.87
2019-01-13T06:40:09.990Z,7.85
2019-01-13T06:41:09.976Z,7.92
2019-01-13T06:42:09.967Z,7.86
2019-01-13T06:43:09.948Z,7.86
2019-01-13T06:44:09.936Z,7.87
2019-01-13T06:45:09.927Z,7.82
2019-01-13T06:46:09.912Z,7.83
2019-01-13T06:47:09.900Z,7.93
2019-01-13T06:48:09.924Z,7.83
2019-01-13T06:49:09.879Z,7.85
2019-01-13T06:50:09.866Z,7.83
2019-01-13T06:51:09.857Z,7.86
2019-01-13T06:52:09.840Z,7.82
2019-01-13T06:53:09.831Z,7.85
2019-01-13T06:54:09.814Z,7.92
2019-01-13T06:55:09.806Z,7.83
2019-01-13T06:56:09.793Z,7.85
2019-01-13T06:57:09.782Z,7.86
2019-01-13T06:58:09.772Z,7.86
2019-01-13T06:59:09.767Z,7.87
2019-01-13T07:00:09.751Z,7.93
2019-01-13T07:01:09.737Z,7.87
2019-01-13T07:02:09.722Z,7.87
2019-01-13T07:03:09.713Z,7.9
2019-01-13T07:04:09.696Z,7.87
2019-01-13T07:05:09.679Z,7.82
2019-01-13T07:06:09.672Z,7.87
2019-01-13T07:07:09.654Z,7.86
2019-01-13T07:08:09.647Z,7.93
2019-01-13T07:09:09.637Z,7.95
2019-01-13T07:10:09.624Z,7.86
2019-01-13T07:11:09.611Z,7.95
2019-01-13T07:12:09.598Z,7.97
2019-01-13T07:13:09.580Z,7.97
2019-01-13T07:14:09.569Z,7.97
2019-01-13T07:15:09.566Z,8.04
2019-01-13T07:16:09.550Z,8
2019-01-13T07:17:09.534Z,8.01
2019-01-13T07:18:09.524Z,8.1
2019-01-13T07:19:09.513Z,8.07
2019-01-13T07:20:09.496Z,8.01
2019-01-13T07:21:09.485Z,7.98
2019-01-13T07:22:09.477Z,8.02
2019-01-13T07:23:09.462Z,8.01
2019-01-13T07:24:09.447Z,8.05
2019-01-13T07:25:09.432Z,8.18
2019-01-13T07:26:09.420Z,8.1
2019-01-13T07:27:09.410Z,8.11
2019-01-13T07:28:09.399Z,8.15
2019-01-13T07:29:09.386Z,8.19
2019-01-13T07:30:09.378Z,8.29
2019-01-13T07:31:09.364Z,8.29
2019-01-13T07:32:15.301Z,8.34
2019-01-13T07:33:09.339Z,8.3
2019-01-13T07:34:09.331Z,8.37
2019-01-13T07:35:09.318Z,8.33
2019-01-13T07:36:09.301Z,8.33
2019-01-13T07:37:09.288Z,8.26
2019-01-13T07:38:09.275Z,8.33
2019-01-13T07:39:09.036Z,8.28
2019-01-13T07:40:09.253Z,8.25
2019-01-13T07:41:09.239Z,8.26
2019-01-13T07:42:09.229Z,8.34
2019-01-13T07:43:09.216Z,8.34
2019-01-13T07:44:09.202Z,8.34
2019-01-13T07:45:09.196Z,8.29
2019-01-13T07:46:09.189Z,8.43
2019-01-13T07:47:09.164Z,8.4
2019-01-13T07:48:09.157Z,8.3
2019-01-13T07:49:09.144Z,8.4
2019-01-13T07:50:09.135Z,8.41
2019-01-13T07:51:09.120Z,8.48
2019-01-13T07:52:09.108Z,8.44
2019-01-13T07:53:09.096Z,8.47
2019-01-13T07:54:09.084Z,8.38
2019-01-13T07:55:09.072Z,8.41
2019-01-13T07:56:09.068Z,8.41
2019-01-13T07:57:09.050Z,8.43
2019-01-13T07:58:08.791Z,8.5
2019-01-13T07:59:09.025Z,8.53
2019-01-13T08:00:09.011Z,8.5
2019-01-13T08:01:09.001Z,8.45
2019-01-13T08:02:08.988Z,8.53
2019-01-13T08:03:08.978Z,8.56
2019-01-13T08:04:08.963Z,8.52
2019-01-13T08:05:08.959Z,8.5
2019-01-13T08:06:08.941Z,8.56
2019-01-13T08:07:08.930Z,8.5
2019-01-13T08:08:08.930Z,8.5
2019-01-13T08:09:08.909Z,8.5
2019-01-13T08:10:08.896Z,8.43
2019-01-13T08:11:08.881Z,8.5
2019-01-13T08:12:08.872Z,8.53
2019-01-13T08:13:08.865Z,8.5
2019-01-13T08:14:08.847Z,8.48
2019-01-13T08:15:08.837Z,8.45
2019-01-13T08:16:08.828Z,8.5
2019-01-13T08:17:08.810Z,8.47
2019-01-13T08:18:08.809Z,8.5
2019-01-13T08:19:08.802Z,8.59
2019-01-13T08:20:08.776Z,8.61
2019-01-13T08:21:08.770Z,8.62
2019-01-13T08:22:08.755Z,8.74
2019-01-13T08:23:08.744Z,8.7
2019-01-13T08:24:08.728Z,8.68
2019-01-13T08:25:08.719Z,8.65
2019-01-13T08:26:08.707Z,8.63
2019-01-13T08:27:08.696Z,8.7
2019-01-13T08:28:08.684Z,8.68
2019-01-13T08:29:08.670Z,8.74
2019-01-13T08:30:08.661Z,8.66
2019-01-13T08:31:08.655Z,8.74
2019-01-13T08:32:08.636Z,8.79
2019-01-13T08:33:08.629Z,8.77
2019-01-13T08:34:08.612Z,8.71
2019-01-13T08:35:08.603Z,8.77
2019-01-13T08:36:08.594Z,8.77
2019-01-13T08:37:08.578Z,8.77
2019-01-13T08:38:08.567Z,8.77
2019-01-13T08:39:08.564Z,8.79
2019-01-13T08:40:08.547Z,8.77
2019-01-13T08:41:08.542Z,8.8
2019-01-13T08:42:08.522Z,8.76
2019-01-13T08:43:08.514Z,8.91
2019-01-13T08:44:08.500Z,8.89
2019-01-13T08:45:08.486Z,8.91
2019-01-13T08:46:08.471Z,8.95
2019-01-13T08:47:08.470Z,8.87
2019-01-13T08:48:08.455Z,8.98
2019-01-13T08:49:08.443Z,8.92
2019-01-13T08:50:08.432Z,8.94
2019-01-13T08:51:08.415Z,9.02
2019-01-13T08:52:08.409Z,9.05
2019-01-13T08:53:08.395Z,8.98
2019-01-13T08:54:08.384Z,9.02
2019-01-13T08:55:08.371Z,9.05
2019-01-13T08:56:08.360Z,9.08
2019-01-13T08:57:08.347Z,9.13
2019-01-13T08:58:08.347Z,9.13
2019-01-13T08:59:08.332Z,9.1
2019-01-13T09:00:08.314Z,9.18
2019-01-13T09:01:08.304Z,9.21
2019-01-13T09:02:08.293Z,9.21
2019-01-13T09:03:08.282Z,9.2
2019-01-13T09:04:08.275Z,9.18
2019-01-13T09:05:08.267Z,9.18
2019-01-13T09:06:08.254Z,9.26
2019-01-13T09:07:08.238Z,9.18
2019-01-13T09:08:08.237Z,9.2
2019-01-13T09:09:08.218Z,9.18
2019-01-13T09:10:08.201Z,9.17
2019-01-13T09:11:08.196Z,9.2
2019-01-13T09:12:08.181Z,9.24
2019-01-13T09:13:08.165Z,9.2
2019-01-13T09:14:08.165Z,9.14
2019-01-13T09:15:08.696Z,9.2
2019-01-13T09:16:08.139Z,9.15
2019-01-13T09:17:08.120Z,9.15
2019-01-13T09:18:08.109Z,9.23
2019-01-13T09:19:08.100Z,9.18
2019-01-13T09:20:08.092Z,9.18
2019-01-13T09:21:08.086Z,9.2
2019-01-13T09:22:08.064Z,9.21
2019-01-13T09:23:08.065Z,9.21
2019-01-13T09:24:08.043Z,9.14
2019-01-13T09:25:08.030Z,9.1
2019-01-13T09:26:08.023Z,9.1
2019-01-13T09:27:08.016Z,9.21
2019-01-13T09:28:08.492Z,9.11
2019-01-13T09:29:07.991Z,9.05
2019-01-13T09:30:07.974Z,9.1
2019-01-13T09:31:07.968Z,9.05
2019-01-13T09:32:07.964Z,9.02
2019-01-13T09:33:08.100Z,9.1
2019-01-13T09:34:07.929Z,9.04
2019-01-13T09:35:07.920Z,9.04
2019-01-13T09:36:07.911Z,9.05
2019-01-13T09:37:07.895Z,9.04
2019-01-13T09:38:09.153Z,8.99
2019-01-13T09:39:07.883Z,8.99
2019-01-13T09:40:07.869Z,9.01
2019-01-13T09:41:07.851Z,8.94
2019-01-13T09:42:07.846Z,8.96
2019-01-13T09:43:07.835Z,8.92
2019-01-13T09:44:07.816Z,8.87
2019-01-13T09:45:07.808Z,8.99
2019-01-13T09:46:07.800Z,8.98
2019-01-13T09:47:07.784Z,8.91
2019-01-13T09:48:07.777Z,8.91
2019-01-13T09:49:07.766Z,8.89
2019-01-13T09:50:07.749Z,8.86
2019-01-13T09:51:07.739Z,8.95
2019-01-13T09:52:07.726Z,8.87
2019-01-13T09:53:07.719Z,8.96
2019-01-13T09:54:07.721Z,8.99
2019-01-13T09:55:07.702Z,9.04
2019-01-13T09:56:07.683Z,8.98
2019-01-13T09:57:07.684Z,8.99
2019-01-13T09:58:07.665Z,8.98
2019-01-13T09:59:07.649Z,9.01
2019-01-13T10:00:07.636Z,8.96
2019-01-13T10:01:07.636Z,8.96
2019-01-13T10:02:07.612Z,8.96
2019-01-13T10:03:07.622Z,8.84
2019-01-13T10:04:07.601Z,8.95
2019-01-13T10:05:07.585Z,8.91
2019-01-13T10:06:07.588Z,8.92
2019-01-13T10:07:07.558Z,8.89
2019-01-13T10:08:07.549Z,8.94
2019-01-13T10:09:07.540Z,8.86
2019-01-13T10:10:07.522Z,8.77
2019-01-13T10:11:07.516Z,8.77
2019-01-13T10:12:07.503Z,8.77
2019-01-13T10:13:07.489Z,8.8
2019-01-13T10:14:07.481Z,8.79
2019-01-13T10:15:07.468Z,8.81
2019-01-13T10:16:07.499Z,8.76
2019-01-13T10:17:07.455Z,8.77
2019-01-13T10:18:07.440Z,8.83
2019-01-13T10:19:07.424Z,8.77
2019-01-13T10:20:07.411Z,8.77
2019-01-13T10:21:07.425Z,8.84
2019-01-13T10:22:07.387Z,8.84
2019-01-13T10:23:07.392Z,8.83
2019-01-13T10:24:07.373Z,8.95
2019-01-13T10:25:07.355Z,8.87
2019-01-13T10:26:07.341Z,8.95
2019-01-13T10:27:07.336Z,8.87
2019-01-13T10:28:07.317Z,8.87
2019-01-13T10:29:07.309Z,8.92
2019-01-13T10:30:07.297Z,8.86
2019-01-13T10:31:08.087Z,8.87
2019-01-13T10:32:07.276Z,8.95
2019-01-13T10:33:07.271Z,8.86
2019-01-13T10:34:07.251Z,8.89
2019-01-13T10:35:07.247Z,8.8
2019-01-13T10:36:07.229Z,8.79
2019-01-13T10:37:07.219Z,8.86
2019-01-13T10:38:07.210Z,8.8
2019-01-13T10:39:07.202Z,8.81
2019-01-13T10:40:07.182Z,8.79
2019-01-13T10:41:07.174Z,8.76
2019-01-13T10:42:07.164Z,8.87
2019-01-13T10:43:07.154Z,8.92
2019-01-13T10:44:07.141Z,8.87
2019-01-13T10:45:07.131Z,8.94
2019-01-13T10:46:07.120Z,8.96
2019-01-13T10:47:07.106Z,8.95
2019-01-13T10:48:07.108Z,8.94
2019-01-13T10:49:07.083Z,9.01
2019-01-13T10:50:07.074Z,9.04
2019-01-13T10:51:07.062Z,9.08
2019-01-13T10:52:07.051Z,9.04
2019-01-13T10:53:07.040Z,8.98
2019-01-13T10:54:13.981Z,8.96
2019-01-13T10:55:07.016Z,8.95
2019-01-13T10:56:07.070Z,8.95
2019-01-13T10:57:06.759Z,8.94
2019-01-13T10:58:06.990Z,8.87
2019-01-13T10:59:06.971Z,8.94
2019-01-13T11:00:06.962Z,8.95
2019-01-13T11:01:06.706Z,8.87
2019-01-13T11:02:07.017Z,8.98
2019-01-13T11:03:07.568Z,9.1
2019-01-13T11:04:06.913Z,9.05
2019-01-13T11:05:06.904Z,8.99
2019-01-13T11:06:06.896Z,9.13
2019-01-13T11:07:06.880Z,9.1
2019-01-13T11:08:13.651Z,9.18
2019-01-13T11:09:06.870Z,9.14
2019-01-13T11:10:06.855Z,9.02
2019-01-13T11:11:06.847Z,9.05
2019-01-13T11:12:06.832Z,9.01
2019-01-13T11:13:06.819Z,9.02
2019-01-13T11:14:06.807Z,8.99
2019-01-13T11:15:06.796Z,9.04
2019-01-13T11:16:06.785Z,9.02
2019-01-13T11:17:06.776Z,8.96
2019-01-13T11:18:06.761Z,8.98
2019-01-13T11:19:06.757Z,8.91
2019-01-13T11:20:06.745Z,8.94
2019-01-13T11:21:06.734Z,8.83
2019-01-13T11:22:06.721Z,8.83
2019-01-13T11:23:06.712Z,8.79
2019-01-13T11:24:07.214Z,8.76
2019-01-13T11:25:06.715Z,8.81
2019-01-13T11:26:06.672Z,8.81
2019-01-13T11:27:06.662Z,8.76
2019-01-13T11:28:06.651Z,8.81
2019-01-13T11:29:06.638Z,8.77
2019-01-13T11:30:06.629Z,8.79
2019-01-13T11:31:06.625Z,8.8
2019-01-13T11:32:06.606Z,8.8
2019-01-13T11:33:14.057Z,8.81
2019-01-13T11:34:06.580Z,8.7
2019-01-13T11:35:06.579Z,8.74
2019-01-13T11:36:06.563Z,8.79
2019-01-13T11:37:06.547Z,8.7
2019-01-13T11:38:06.542Z,8.76
2019-01-13T11:39:06.526Z,8.68
2019-01-13T11:40:06.542Z,8.7
2019-01-13T11:41:06.505Z,8.74
2019-01-13T11:42:06.496Z,8.73
2019-01-13T11:43:06.486Z,8.86
2019-01-13T11:44:06.479Z,8.83
2019-01-13T11:45:06.460Z,8.86
2019-01-13T11:46:06.451Z,8.84
2019-01-13T11:47:06.437Z,8.89
2019-01-13T11:48:06.439Z,8.79
2019-01-13T11:49:06.416Z,8.84
2019-01-13T11:50:06.435Z,8.84
2019-01-13T11:51:06.403Z,8.98
2019-01-13T11:52:06.381Z,8.94
2019-01-13T11:53:06.368Z,8.91
2019-01-13T11:54:06.362Z,8.99
2019-01-13T11:55:06.346Z,8.86
2019-01-13T11:56:06.345Z,8.86
2019-01-13T11:57:06.329Z,8.86
2019-01-13T11:58:06.317Z,8.8
2019-01-13T11:59:06.299Z,8.8
2019-01-13T12:00:06.061Z,8.8
2019-01-13T12:01:06.280Z,8.84
2019-01-13T12:02:06.273Z,8.73
2019-01-13T12:03:19.120Z,8.74
2019-01-13T12:04:06.258Z,8.83
2019-01-13T12:05:06.886Z,8.79
2019-01-13T12:06:06.238Z,8.68
2019-01-13T12:07:06.218Z,8.66
2019-01-13T12:08:06.199Z,8.79
2019-01-13T12:09:06.190Z,8.7
2019-01-13T12:10:06.177Z,8.74
2019-01-13T12:11:06.170Z,8.74
2019-01-13T12:12:06.163Z,8.71
2019-01-13T12:13:06.149Z,8.56
2019-01-13T12:14:05.894Z,8.7
2019-01-13T12:15:06.127Z,8.7
2019-01-13T12:16:06.127Z,8.63
2019-01-13T12:17:06.105Z,8.76
2019-01-13T12:18:06.088Z,8.7
2019-01-13T12:19:06.078Z,8.7
2019-01-13T12:20:06.083Z,8.76
2019-01-13T12:21:06.055Z,8.68
2019-01-13T12:22:06.048Z,8.73
2019-01-13T12:23:06.044Z,8.68
2019-01-13T12:24:06.025Z,8.56
2019-01-13T12:25:06.007Z,8.68
2019-01-13T12:26:05.999Z,8.59
2019-01-13T12:27:05.985Z,8.58
2019-01-13T12:28:05.972Z,8.68
2019-01-13T12:29:05.959Z,8.56
2019-01-13T12:30:05.967Z,8.58
2019-01-13T12:31:05.942Z,8.63
2019-01-13T12:32:05.932Z,8.53
2019-01-13T12:33:05.928Z,8.55
2019-01-13T12:34:05.902Z,8.53
2019-01-13T12:35:05.892Z,8.59
2019-01-13T12:36:05.883Z,8.55
2019-01-13T12:37:05.875Z,8.48
2019-01-13T12:38:05.861Z,8.53
2019-01-13T12:39:05.848Z,8.58
2019-01-13T12:40:05.840Z,8.61
2019-01-13T12:41:05.826Z,8.55
2019-01-13T12:42:05.577Z,8.52
2019-01-13T12:43:05.801Z,8.5
2019-01-13T12:44:05.916Z,8.52
2019-01-13T12:45:05.776Z,8.5
2019-01-13T12:46:05.767Z,8.44
2019-01-13T12:47:05.758Z,8.44
2019-01-13T12:48:05.743Z,8.5
2019-01-13T12:49:05.736Z,8.44
2019-01-13T12:50:05.729Z,8.48
2019-01-13T12:51:05.711Z,8.44
2019-01-13T12:52:05.700Z,8.45
2019-01-13T12:53:05.690Z,8.47
2019-01-13T12:54:05.673Z,8.47
2019-01-13T12:55:05.670Z,8.44
2019-01-13T12:56:05.648Z,8.44
2019-01-13T12:57:05.639Z,8.45
2019-01-13T12:58:05.385Z,8.41
2019-01-13T12:59:05.615Z,8.45
2019-01-13T13:00:05.602Z,8.44
2019-01-13T13:01:05.590Z,8.38
2019-01-13T13:02:05.579Z,8.38
2019-01-13T13:03:05.577Z,8.48
2019-01-13T13:04:05.556Z,8.48
2019-01-13T13:05:05.551Z,8.43
2019-01-13T13:06:05.532Z,8.45
2019-01-13T13:07:05.523Z,8.47
2019-01-13T13:08:05.510Z,8.43
2019-01-13T13:09:05.497Z,8.47
2019-01-13T13:10:05.493Z,8.43
2019-01-13T13:11:05.477Z,8.44
2019-01-13T13:12:05.464Z,8.45
2019-01-13T13:13:05.450Z,8.44
2019-01-13T13:14:05.451Z,8.4
2019-01-13T13:15:05.444Z,8.53
2019-01-13T13:16:05.418Z,8.5
2019-01-13T13:17:05.403Z,8.4
2019-01-13T13:18:05.394Z,8.55
2019-01-13T13:19:05.381Z,8.5
2019-01-13T13:20:05.374Z,8.38
2019-01-13T13:21:05.359Z,8.45
2019-01-13T13:22:05.346Z,8.44